createdAt,value
2019-02-11T00:05:57.027Z,10
2019-02-11T00:20:44.195Z,9.2
2019-02-11T00:36:20.166Z,10.9
2019-02-11T00:51:03.956Z,11.4
2019-02-11T01:06:28.172Z,8.3
2019-02-11T01:21:10.553Z,7.5
2019-02-11T01:35:50.756Z,6.1
2019-02-11T01:51:29.906Z,6
2019-02-11T02:05:36.606Z,5.6
2019-02-11T02:21:05.463Z,5.1
2019-02-11T02:36:21.825Z,5
2019-02-11T02:51:25.826Z,3.3
2019-02-11T03:06:00.421Z,3.3
2019-02-11T03:21:20.386Z,4.4
2019-02-11T03:36:27.134Z,3.4
2019-02-11T03:51:30.536Z,3.8
2019-02-11T04:05:48.942Z,3.6
2019-02-11T04:21:09.738Z,2.8
2019-02-11T04:36:20.420Z,3.1
2019-02-11T04:51:16.008Z,2.3
2019-02-11T05:06:34.743Z,3
2019-02-11T05:20:43.630Z,3.3
2019-02-11T05:36:10.156Z,1.8
2019-02-11T05:51:25.105Z,3
2019-02-11T05:55:38.955Z,3
2019-02-11T06:06:26.017Z,2.5
2019-02-11T06:21:32.756Z,2.2
2019-02-11T06:36:23.164Z,1.9
2019-02-11T06:51:38.869Z,2
2019-02-11T07:06:31.609Z,2.5
2019-02-11T07:20:51.431Z,3.4
2019-02-11T07:36:05.765Z,2.1
2019-02-11T07:51:09.996Z,2.3
2019-02-11T08:06:25.885Z,2.6
2019-02-11T08:21:35.124Z,2.9
2019-02-11T08:36:42.039Z,6.5
2019-02-11T08:51:43.266Z,6.9
2019-02-11T09:06:19.617Z,10.3
2019-02-11T09:21:02.159Z,9.2
2019-02-11T09:36:06.673Z,10.5
2019-02-11T09:51:00.574Z,8.5
2019-02-11T10:06:12.733Z,10.5
2019-02-11T10:21:26.546Z,7.4
2019-02-11T10:36:37.540Z,10
2019-02-11T10:50:57.982Z,9.8
2019-02-11T11:06:41.228Z,9.7
2019-02-11T11:21:56.588Z,9.6
2019-02-11T11:36:27.746Z,8.7
2019-02-11T11:51:40.726Z,9.7
2019-02-11T12:06:55.257Z,16.5
2019-02-11T12:21:12.982Z,13
2019-02-11T12:36:15.067Z,12.5
2019-02-11T12:51:19.455Z,12.8
2019-02-11T13:06:33.230Z,10.2
2019-02-11T13:21:38.003Z,8
2019-02-11T13:36:56.283Z,10
2019-02-11T13:51:15.836Z,10
2019-02-11T14:05:07.086Z,10
2019-02-11T14:06:51.897Z,9.3
2019-02-11T14:16:32.861Z,9.3
2019-02-11T14:20:53.583Z,9.3
2019-02-11T14:21:36.815Z,7.9
2019-02-11T14:33:16.666Z,7.9
2019-02-11T14:36:14.054Z,10.7
2019-02-11T14:52:08.423Z,12.1
2019-02-11T15:06:49.895Z,9
2019-02-11T15:21:42.783Z,9.4
2019-02-11T15:36:57.850Z,5.8
2019-02-11T15:51:38.644Z,11.8
2019-02-11T16:06:37.636Z,11.5
2019-02-11T16:06:38.114Z,11.5
2019-02-11T16:21:23.775Z,10.5
2019-02-11T16:37:10.622Z,11.9
2019-02-11T16:51:48.471Z,7.6
2019-02-11T17:06:40.731Z,10.4
2019-02-11T17:21:46.654Z,7.5
2019-02-11T17:36:47.791Z,5
2019-02-11T17:51:33.139Z,8.2
2019-02-11T18:06:37.828Z,10.2
2019-02-11T18:21:49.903Z,8
2019-02-11T18:36:35.772Z,9.4
2019-02-11T18:51:35.962Z,8.6
2019-02-11T19:06:40.751Z,7.7
2019-02-11T19:21:49.145Z,8
2019-02-11T19:37:16.730Z,7.2
2019-02-11T19:52:12.207Z,7.5
2019-02-11T20:07:17.169Z,8.7
2019-02-11T20:22:25.814Z,8.7
2019-02-11T20:37:23.922Z,5.8
2019-02-11T20:52:18.386Z,6.9
2019-02-11T21:07:34.814Z,7.9
2019-02-11T21:22:30.703Z,9
2019-02-11T21:36:40.347Z,10.7
2019-02-11T21:52:31.597Z,9.4
2019-02-11T22:07:32.897Z,11.3
2019-02-11T22:22:22.047Z,11.2
2019-02-11T22:37:13.988Z,8.6
2019-02-11T22:52:13.307Z,6.4
2019-02-11T23:06:54.011Z,5.9
2019-02-11T23:21:53.810Z,7.4
2019-02-11T23:37:01.845Z,7.6
2019-02-11T23:52:01.690Z,5.3
